Time;durP1;ratioP1;P1;durP2;ratioP2;P2;SDS_P1;SDS_P2;PMS_P1;PMS_P2;Temp;Humidity;BMP_temperature;BMP_pressure;BME280_temperature;BME280_humidity;BME280_pressure;Samples;Min_cycle;Max_cycle;Signal;HPM_P1;HPM_P2
2024/01/23 00:01:17;;;;;;;16.05;3.58;;;6.90;99.90;;;;;;4997758;28;20221;-74
2024/01/23 00:03:42;;;;;;;18.65;3.47;;;6.80;99.90;;;;;;4993851;28;20129;-74
2024/01/23 00:06:08;;;;;;;18.33;3.65;;;6.70;99.90;;;;;;4992293;28;20069;-74
2024/01/23 00:08:34;;;;;;;17.58;3.83;;;6.80;99.90;;;;;;5023639;28;20046;-74
2024/01/23 00:11:00;;;;;;;19.20;3.70;;;6.70;99.90;;;;;;4999031;28;20049;-74
2024/01/23 00:13:25;;;;;;;20.35;3.45;;;6.80;83.80;;;;;;5004476;28;20617;-74
2024/01/23 00:15:51;;;;;;;21.42;3.45;;;6.70;51.70;;;;;;4987187;28;20185;-74
2024/01/23 00:18:17;;;;;;;12.90;3.45;;;6.70;66.20;;;;;;4997220;28;20435;-74
2024/01/23 00:20:43;;;;;;;18.25;3.42;;;6.70;18.90;;;;;;4993461;28;20098;-74
2024/01/23 00:23:08;;;;;;;21.38;3.63;;;6.70;18.60;;;;;;4997624;28;20050;-74
2024/01/23 00:25:34;;;;;;;14.70;3.10;;;6.70;1.00;;;;;;4978843;28;20041;-74
2024/01/23 00:28:00;;;;;;;15.52;3.55;;;6.70;5.30;;;;;;4991068;28;20045;-74
2024/01/23 00:30:26;;;;;;;15.95;3.45;;;6.70;9.10;;;;;;4987173;28;20041;-74
2024/01/23 00:32:51;;;;;;;13.43;3.08;;;6.70;1.00;;;;;;4984410;28;20127;-74
2024/01/23 00:35:17;;;;;;;21.48;3.72;;;6.80;1.00;;;;;;5000398;28;20086;-74
2024/01/23 00:37:43;;;;;;;16.75;3.38;;;6.70;1.00;;;;;;4992185;28;20493;-74
2024/01/23 00:40:12;;;;;;;13.65;3.33;;;6.70;1.00;;;;;;5006424;28;20308;-74
2024/01/23 00:42:38;;;;;;;24.15;4.03;;;6.70;1.00;;;;;;4993526;28;20053;-74
2024/01/23 00:45:04;;;;;;;17.98;3.55;;;6.70;1.00;;;;;;4988521;28;20124;-74
2024/01/23 00:47:31;;;;;;;14.40;3.33;;;6.70;1.00;;;;;;4983114;28;20492;-74
2024/01/23 00:49:57;;;;;;;17.60;3.88;;;6.70;1.00;;;;;;4998200;28;20081;-74
2024/01/23 00:52:22;;;;;;;16.42;3.05;;;6.80;1.00;;;;;;5000998;28;20472;-74
2024/01/23 00:54:48;;;;;;;20.98;3.55;;;6.80;1.00;;;;;;5000336;28;20492;-74
2024/01/23 00:57:14;;;;;;;16.85;3.47;;;6.70;1.00;;;;;;5032144;28;20489;-74
2024/01/23 00:59:43;;;;;;;20.05;3.83;;;6.80;1.00;;;;;;5001245;28;20184;-74
2024/01/23 01:02:08;;;;;;;16.70;3.78;;;6.70;1.00;;;;;;4984364;28;20520;-74
2024/01/23 01:04:35;;;;;;;17.20;4.05;;;6.70;1.00;;;;;;5011855;28;20042;-74
2024/01/23 01:07:01;;;;;;;18.58;3.60;;;6.80;1.00;;;;;;4984675;28;20045;-74
2024/01/23 01:09:32;;;;;;;18.48;4.28;;;6.80;1.00;;;;;;4984087;28;20038;-74
2024/01/23 01:11:57;;;;;;;18.67;4.47;;;6.80;1.00;;;;;;4984517;28;20057;-74
2024/01/23 01:14:24;;;;;;;19.52;3.75;;;6.80;1.00;;;;;;4984546;28;20030;-74
2024/01/23 01:16:50;;;;;;;15.38;3.70;;;6.90;1.00;;;;;;5000487;28;20054;-74
2024/01/23 01:19:15;;;;;;;20.70;3.88;;;6.70;1.00;;;;;;4984001;28;20123;-74
2024/01/23 01:21:41;;;;;;;22.13;3.60;;;6.70;1.00;;;;;;4983676;28;20531;-74
2024/01/23 01:24:07;;;;;;;16.70;3.22;;;6.70;1.00;;;;;;4984108;28;20115;-74
2024/01/23 01:26:32;;;;;;;21.48;3.83;;;6.60;1.00;;;;;;5013489;28;20497;-74
2024/01/23 01:28:58;;;;;;;18.80;3.75;;;6.60;1.00;;;;;;4979405;28;20050;-74
2024/01/23 01:31:24;;;;;;;23.23;4.10;;;6.50;1.00;;;;;;4990608;28;20373;-74
2024/01/23 01:33:50;;;;;;;20.83;3.53;;;6.60;1.00;;;;;;4998967;28;20041;-74
2024/01/23 01:36:15;;;;;;;17.15;3.90;;;6.60;1.00;;;;;;5025337;28;20081;-74
2024/01/23 01:38:41;;;;;;;18.10;4.03;;;6.60;1.00;;;;;;5011620;28;20050;-74
2024/01/23 01:41:07;;;;;;;20.20;4.43;;;6.60;1.00;;;;;;4995838;28;20107;-74
2024/01/23 01:43:33;;;;;;;15.95;3.72;;;6.60;1.00;;;;;;4985969;28;20048;-74
2024/01/23 01:46:17;;;;;;;18.90;4.38;;;6.60;1.00;;;;;;4988256;28;20045;-74
2024/01/23 01:48:45;;;;;;;18.98;4.38;;;6.60;1.00;;;;;;5007136;28;20876;-74
2024/01/23 01:51:11;;;;;;;16.30;3.60;;;6.50;1.00;;;;;;4975645;28;20550;-74
2024/01/23 01:53:38;;;;;;;21.50;4.20;;;6.60;1.00;;;;;;5026425;28;20046;-74
2024/01/23 01:56:06;;;;;;;17.50;3.13;;;6.50;1.00;;;;;;4983993;28;20041;-74
2024/01/23 01:58:33;;;;;;;19.33;4.53;;;6.50;1.00;;;;;;5000575;28;20210;-74
2024/01/23 02:01:02;;;;;;;23.15;3.80;;;6.50;1.00;;;;;;4996967;28;20539;-74
2024/01/23 02:03:29;;;;;;;15.07;4.13;;;6.40;1.00;;;;;;5028338;28;20342;-74
2024/01/23 02:05:57;;;;;;;18.83;3.97;;;6.40;1.00;;;;;;5000920;28;20057;-74
2024/01/23 02:08:24;;;;;;;17.48;3.47;;;6.40;1.00;;;;;;5012334;28;20034;-74
2024/01/23 02:10:50;;;;;;;21.42;4.03;;;6.40;1.00;;;;;;4983227;28;20172;-74
2024/01/23 02:13:15;;;;;;;19.08;3.92;;;6.40;1.00;;;;;;5011264;28;20121;-74
2024/01/23 02:15:41;;;;;;;17.70;3.60;;;6.40;1.00;;;;;;4983910;28;20247;-74
2024/01/23 02:18:07;;;;;;;19.92;4.63;;;6.40;99.90;;;;;;4989365;28;20107;-74
2024/01/23 02:20:32;;;;;;;17.98;4.25;;;6.50;99.90;;;;;;5027836;28;20482;-74
2024/01/23 02:22:58;;;;;;;17.02;3.22;;;6.50;99.90;;;;;;4979222;28;20041;-74
2024/01/23 02:25:24;;;;;;;21.27;5.00;;;6.50;99.90;;;;;;4995203;28;20048;-74
2024/01/23 02:27:50;;;;;;;21.75;3.90;;;6.40;99.90;;;;;;4980597;28;20073;-74
2024/01/23 02:30:16;;;;;;;17.67;3.95;;;6.40;99.90;;;;;;4982470;28;20401;-74
2024/01/23 02:32:44;;;;;;;20.73;4.35;;;6.40;99.90;;;;;;4999201;28;20102;-74
2024/01/23 02:35:10;;;;;;;17.52;3.85;;;6.50;99.90;;;;;;4997590;28;20335;-74
2024/01/23 02:37:37;;;;;;;20.90;4.40;;;6.50;99.90;;;;;;4980702;28;20145;-74
2024/01/23 02:40:04;;;;;;;16.75;4.35;;;6.50;99.90;;;;;;4989618;28;20046;-74
2024/01/23 02:42:29;;;;;;;22.98;4.18;;;6.40;99.90;;;;;;5011991;28;20104;-74
2024/01/23 02:44:55;;;;;;;15.73;3.72;;;6.40;99.90;;;;;;4997415;28;20046;-74
2024/01/23 02:47:21;;;;;;;20.35;4.38;;;6.50;99.90;;;;;;4983414;28;20481;-74
2024/01/23 02:49:46;;;;;;;22.17;4.35;;;6.60;99.90;;;;;;5008617;28;20042;-74
2024/01/23 02:52:13;;;;;;;25.92;5.00;;;6.70;99.90;;;;;;4989451;28;20046;-74
2024/01/23 02:54:39;;;;;;;25.92;4.40;;;6.70;99.90;;;;;;4995040;28;20572;-74
2024/01/23 02:57:04;;;;;;;21.67;3.80;;;6.80;99.90;;;;;;4976238;28;20034;-74
2024/01/23 02:59:30;;;;;;;20.42;3.90;;;6.70;99.90;;;;;;5011174;28;20037;-74
2024/01/23 03:01:56;;;;;;;20.00;4.47;;;6.80;99.90;;;;;;4980739;28;20096;-74
2024/01/23 03:04:22;;;;;;;22.27;4.25;;;6.80;99.90;;;;;;5011808;28;21248;-74
2024/01/23 03:06:47;;;;;;;19.23;4.53;;;6.80;99.90;;;;;;4989549;28;20038;-74
2024/01/23 03:09:13;;;;;;;27.38;4.95;;;6.80;99.90;;;;;;4993911;28;20498;-74
2024/01/23 03:11:42;;;;;;;16.48;3.45;;;6.70;99.90;;;;;;4996104;28;20041;-74
2024/01/23 03:14:08;;;;;;;15.57;3.38;;;6.80;99.90;;;;;;4991612;28;20042;-74
2024/01/23 03:16:34;;;;;;;21.20;4.60;;;6.80;99.90;;;;;;4989816;28;20046;-74
2024/01/23 03:19:00;;;;;;;24.08;3.85;;;6.80;99.90;;;;;;4978403;28;20060;-74
2024/01/23 03:21:26;;;;;;;23.02;5.07;;;6.90;99.90;;;;;;4995575;28;20042;-74
2024/01/23 03:23:52;;;;;;;16.17;4.25;;;6.70;99.90;;;;;;4979237;28;20048;-74
2024/01/23 03:26:17;;;;;;;17.77;3.50;;;6.80;99.90;;;;;;4983055;28;20053;-74
2024/01/23 03:28:43;;;;;;;18.25;3.92;;;6.80;99.90;;;;;;5008006;28;20041;-74
2024/01/23 03:31:09;;;;;;;16.65;4.18;;;6.80;99.90;;;;;;4988590;28;20464;-74
2024/01/23 03:33:35;;;;;;;19.73;3.28;;;6.70;99.90;;;;;;4994766;28;20037;-74
2024/01/23 03:36:01;;;;;;;20.17;4.05;;;6.80;99.90;;;;;;4978191;28;20053;-74
2024/01/23 03:38:26;;;;;;;19.25;4.15;;;6.70;99.90;;;;;;4993991;28;20105;-74
2024/01/23 03:40:52;;;;;;;25.13;4.70;;;6.70;99.90;;;;;;4981647;28;20084;-74
2024/01/23 03:43:18;;;;;;;23.13;5.22;;;6.80;99.90;;;;;;4975767;28;20104;-74
2024/01/23 03:45:44;;;;;;;16.65;3.85;;;6.80;99.90;;;;;;4981573;28;20289;-74
2024/01/23 03:48:10;;;;;;;15.10;3.20;;;6.80;99.90;;;;;;5031771;28;20053;-74
2024/01/23 03:50:36;;;;;;;18.90;4.22;;;6.80;99.90;;;;;;4993647;28;20092;-74
2024/01/23 03:53:01;;;;;;;23.77;4.80;;;6.80;99.90;;;;;;4990979;28;20092;-74
2024/01/23 03:55:27;;;;;;;18.38;3.85;;;6.80;99.90;;;;;;4984581;28;20550;-74
2024/01/23 03:57:53;;;;;;;22.75;4.15;;;6.90;99.90;;;;;;4995954;28;20072;-74
2024/01/23 04:00:19;;;;;;;22.45;4.95;;;6.90;99.90;;;;;;5027503;28;20041;-74
2024/01/23 04:02:45;;;;;;;13.88;3.67;;;6.90;99.90;;;;;;4998589;28;20077;-74
2024/01/23 04:05:11;;;;;;;20.05;4.13;;;6.90;99.90;;;;;;5000068;28;20072;-74
2024/01/23 04:07:37;;;;;;;20.52;4.43;;;7.00;99.90;;;;;;4977549;28;20493;-74
2024/01/23 04:10:04;;;;;;;18.92;4.75;;;7.00;99.90;;;;;;4978325;28;20582;-74
2024/01/23 04:12:30;;;;;;;19.95;4.78;;;7.10;99.90;;;;;;4985020;28;20389;-74
2024/01/23 04:14:58;;;;;;;26.33;4.95;;;7.10;99.90;;;;;;5000227;28;20041;-74
2024/01/23 04:17:25;;;;;;;22.90;4.32;;;7.00;99.90;;;;;;4984773;28;20101;-74
2024/01/23 04:19:50;;;;;;;23.15;4.32;;;7.10;99.90;;;;;;5003193;28;20369;-74
2024/01/23 04:22:19;;;;;;;22.63;5.18;;;7.10;99.90;;;;;;5002983;28;20041;-74
2024/01/23 04:24:45;;;;;;;23.88;4.40;;;7.10;99.90;;;;;;4983490;28;20049;-74
2024/01/23 04:27:10;;;;;;;22.38;4.18;;;7.10;99.90;;;;;;5009126;28;20408;-74
2024/01/23 04:29:36;;;;;;;21.70;4.13;;;7.20;99.90;;;;;;4984837;28;20037;-74
2024/01/23 04:32:02;;;;;;;20.77;4.40;;;7.10;99.90;;;;;;5018481;28;20049;-74
2024/01/23 04:34:28;;;;;;;22.85;4.78;;;7.10;99.90;;;;;;5001095;28;20046;-74
2024/01/23 04:36:53;;;;;;;29.10;5.68;;;7.20;99.90;;;;;;4984364;28;20460;-73
2024/01/23 04:39:19;;;;;;;23.92;4.82;;;7.20;99.90;;;;;;5000249;28;20042;-74
2024/01/23 04:41:45;;;;;;;29.67;5.72;;;7.20;99.90;;;;;;4982586;28;20604;-74
2024/01/23 04:44:11;;;;;;;21.63;4.32;;;7.20;99.90;;;;;;4984921;28;20501;-74
2024/01/23 04:46:36;;;;;;;21.05;4.38;;;7.20;99.90;;;;;;4981940;28;20043;-74
2024/01/23 04:49:02;;;;;;;18.90;4.45;;;7.20;99.90;;;;;;4992233;28;20529;-74
2024/01/23 04:51:29;;;;;;;20.88;4.55;;;7.20;99.90;;;;;;4998392;28;20049;-74
2024/01/23 04:53:56;;;;;;;19.27;4.47;;;7.20;99.90;;;;;;4985101;28;20062;-74
2024/01/23 04:56:22;;;;;;;32.90;5.13;;;7.20;99.90;;;;;;4994650;28;20045;-74
2024/01/23 04:58:48;;;;;;;20.67;5.05;;;7.30;99.90;;;;;;4997478;28;20425;-74
2024/01/23 05:01:15;;;;;;;24.77;4.30;;;7.20;99.90;;;;;;4984877;28;20493;-74
2024/01/23 05:03:40;;;;;;;24.88;5.00;;;7.20;99.90;;;;;;5030084;28;20394;-74
2024/01/23 05:06:06;;;;;;;29.88;5.20;;;7.20;99.90;;;;;;5007483;28;20125;-74
2024/01/23 05:08:32;;;;;;;22.58;4.28;;;7.20;99.90;;;;;;4984889;28;20509;-74
2024/01/23 05:10:57;;;;;;;21.85;4.88;;;7.10;99.90;;;;;;4986745;28;20283;-74
2024/01/23 05:13:23;;;;;;;18.95;4.60;;;7.20;99.90;;;;;;4981781;28;20464;-74
2024/01/23 05:15:49;;;;;;;22.58;4.85;;;7.20;99.90;;;;;;4984290;28;20042;-74
2024/01/23 05:18:15;;;;;;;23.58;4.93;;;7.20;99.90;;;;;;4984056;28;20045;-74
2024/01/23 05:20:41;;;;;;;26.45;4.75;;;7.20;99.90;;;;;;4998109;28;20078;-74
2024/01/23 05:23:06;;;;;;;18.90;4.57;;;7.20;99.90;;;;;;4995823;28;20049;-74
2024/01/23 05:25:32;;;;;;;23.75;4.38;;;7.30;99.90;;;;;;4985527;28;20048;-74
2024/01/23 05:27:59;;;;;;;17.10;4.43;;;7.30;99.90;;;;;;4999319;28;20113;-74
2024/01/23 05:30:24;;;;;;;27.05;5.82;;;7.20;99.90;;;;;;4982342;28;20093;-74
2024/01/23 05:32:51;;;;;;;25.30;4.80;;;7.20;1.00;;;;;;5001302;28;20049;-74
2024/01/23 05:35:17;;;;;;;37.50;5.63;;;7.10;99.90;;;;;;4997827;28;20052;-74
2024/01/23 05:37:43;;;;;;;14.43;3.65;;;7.30;99.90;;;;;;4996958;28;20053;-74
2024/01/23 05:40:12;;;;;;;28.10;4.97;;;7.40;99.90;;;;;;5003305;28;20511;-74
2024/01/23 05:42:39;;;;;;;26.20;5.20;;;7.30;99.90;;;;;;4986200;28;20081;-74
2024/01/23 05:45:05;;;;;;;31.17;6.53;;;7.30;99.90;;;;;;5030349;28;20038;-74
2024/01/23 05:47:33;;;;;;;25.75;5.70;;;7.30;99.90;;;;;;4990846;28;20498;-74
2024/01/23 05:50:00;;;;;;;32.42;5.72;;;7.20;99.90;;;;;;4998829;28;20034;-74
2024/01/23 05:52:26;;;;;;;36.85;6.38;;;7.20;99.90;;;;;;4994770;28;20099;-74
2024/01/23 05:54:52;;;;;;;31.65;5.95;;;7.20;99.90;;;;;;4985229;28;20145;-74
2024/01/23 05:57:18;;;;;;;30.13;6.18;;;7.10;1.00;;;;;;4989832;28;20130;-74
2024/01/23 05:59:43;;;;;;;28.13;6.00;;;7.00;1.00;;;;;;4983936;28;20102;-74
2024/01/23 06:02:09;;;;;;;35.97;6.15;;;7.10;1.00;;;;;;4998232;28;20053;-74
2024/01/23 06:04:35;;;;;;;19.58;5.15;;;7.00;1.00;;;;;;4997421;28;20077;-74
2024/01/23 06:07:01;;;;;;;30.42;6.18;;;6.90;1.00;;;;;;4984075;28;20099;-74
2024/01/23 06:09:29;;;;;;;34.63;6.10;;;6.90;1.00;;;;;;4994663;28;20049;-74
2024/01/23 06:11:55;;;;;;;29.48;5.68;;;6.80;1.00;;;;;;4999813;28;20226;-74
2024/01/23 06:14:21;;;;;;;30.25;6.25;;;6.80;1.00;;;;;;5011135;28;20428;-74
2024/01/23 06:16:47;;;;;;;32.65;6.82;;;6.80;1.00;;;;;;4991457;28;20054;-74
2024/01/23 06:19:12;;;;;;;24.42;5.35;;;6.80;1.00;;;;;;5012582;28;20061;-74
2024/01/23 06:21:38;;;;;;;26.90;5.90;;;6.70;1.00;;;;;;4980292;28;20452;-74
2024/01/23 06:24:05;;;;;;;32.72;6.38;;;6.70;1.00;;;;;;4985403;28;20396;-74
2024/01/23 06:26:32;;;;;;;26.58;6.43;;;6.80;1.00;;;;;;4980461;28;20093;-74
2024/01/23 06:29:01;;;;;;;38.45;6.22;;;6.70;1.00;;;;;;4980514;28;20061;-74
2024/01/23 06:31:27;;;;;;;34.05;6.40;;;6.70;1.00;;;;;;4997007;28;20121;-74
2024/01/23 06:33:53;;;;;;;31.65;7.00;;;6.70;1.00;;;;;;5009148;28;20348;-74
2024/01/23 06:36:20;;;;;;;27.00;5.90;;;6.70;1.00;;;;;;4985123;28;20034;-74
2024/01/23 06:38:46;;;;;;;29.60;5.55;;;6.60;1.00;;;;;;5009607;28;20145;-74
2024/01/23 06:41:12;;;;;;;38.95;7.22;;;6.50;50.90;;;;;;4994118;28;20034;-74
2024/01/23 06:43:37;;;;;;;30.08;6.05;;;6.40;86.00;;;;;;4992376;28;20520;-74
2024/01/23 06:46:03;;;;;;;36.60;7.40;;;6.50;98.60;;;;;;4990158;28;20386;-74
2024/01/23 06:48:31;;;;;;;40.28;6.43;;;6.50;99.90;;;;;;4993605;28;20720;-74
2024/01/23 06:50:57;;;;;;;34.30;6.93;;;6.40;99.90;;;;;;4993543;28;20038;-74
2024/01/23 06:53:22;;;;;;;31.67;6.78;;;6.40;99.90;;;;;;4995750;28;20045;-74
2024/01/23 06:55:48;;;;;;;31.52;6.70;;;6.30;99.90;;;;;;4972495;28;20101;-74
2024/01/23 06:58:14;;;;;;;32.50;7.18;;;6.30;99.90;;;;;;5022885;28;20537;-74
2024/01/23 07:00:40;;;;;;;32.97;6.60;;;6.30;99.90;;;;;;4988352;28;20128;-74
2024/01/23 07:03:08;;;;;;;34.72;6.30;;;6.20;99.90;;;;;;4979254;28;20141;-74
2024/01/23 07:05:35;;;;;;;33.90;6.65;;;6.20;99.90;;;;;;4974227;28;20149;-74
2024/01/23 07:08:02;;;;;;;34.63;6.13;;;6.20;99.90;;;;;;4976961;28;20107;-74
2024/01/23 07:10:29;;;;;;;32.53;6.97;;;6.30;99.90;;;;;;4994426;28;20509;-73
2024/01/23 07:12:55;;;;;;;30.98;5.90;;;6.10;99.90;;;;;;4992489;28;20139;-74
2024/01/23 07:15:21;;;;;;;36.60;7.97;;;6.20;99.90;;;;;;4973352;28;20072;-74
2024/01/23 07:17:48;;;;;;;30.25;6.68;;;6.30;99.90;;;;;;5003436;28;20300;-74
2024/01/23 07:20:14;;;;;;;31.95;6.18;;;6.20;99.90;;;;;;4997324;28;20069;-74
2024/01/23 07:22:39;;;;;;;31.50;6.25;;;6.10;99.90;;;;;;5006755;28;20707;-74
2024/01/23 07:25:05;;;;;;;31.60;6.85;;;6.10;99.90;;;;;;4988788;28;20413;-74
2024/01/23 07:27:32;;;;;;;36.60;7.13;;;6.00;99.90;;;;;;4978767;28;20061;-74
2024/01/23 07:29:58;;;;;;;32.75;6.78;;;6.10;99.90;;;;;;4982039;28;20049;-74
2024/01/23 07:32:23;;;;;;;28.05;6.07;;;6.00;99.90;;;;;;4992107;28;20451;-74
2024/01/23 07:34:49;;;;;;;29.30;6.13;;;6.00;99.90;;;;;;4979822;28;20110;-74
2024/01/23 07:37:15;;;;;;;34.38;6.57;;;6.00;99.90;;;;;;4995099;28;20140;-74
2024/01/23 07:39:41;;;;;;;33.50;6.75;;;6.00;99.90;;;;;;5014590;28;20128;-74
2024/01/23 07:42:06;;;;;;;37.03;6.80;;;6.00;99.90;;;;;;4996433;28;20042;-74
2024/01/23 07:44:37;;;;;;;32.95;5.85;;;6.00;99.90;;;;;;5030063;28;20073;-74
2024/01/23 07:47:04;;;;;;;31.40;6.80;;;6.00;99.90;;;;;;4998742;28;20107;-74
2024/01/23 07:49:29;;;;;;;31.05;6.55;;;6.00;99.90;;;;;;4993107;28;21270;-74
2024/01/23 07:51:55;;;;;;;22.05;6.38;;;6.00;99.90;;;;;;4984091;28;20484;-74
2024/01/23 07:54:21;;;;;;;26.45;6.32;;;6.00;99.90;;;;;;4980857;28;20042;-74
2024/01/23 07:56:47;;;;;;;38.28;6.88;;;6.00;99.90;;;;;;4983752;28;20069;-74
2024/01/23 07:59:13;;;;;;;37.10;7.85;;;5.90;99.90;;;;;;4994928;28;20104;-74
2024/01/23 08:01:39;;;;;;;29.63;6.70;;;6.00;99.90;;;;;;4999557;28;20092;-74
2024/01/23 08:04:05;;;;;;;30.88;6.93;;;5.90;99.90;;;;;;4983904;28;20401;-74
2024/01/23 08:06:30;;;;;;;35.17;6.25;;;6.00;99.90;;;;;;5014096;28;20042;-74
2024/01/23 08:08:56;;;;;;;39.30;6.82;;;6.10;99.90;;;;;;5009452;28;20046;-74
2024/01/23 08:11:25;;;;;;;35.50;6.63;;;6.10;99.90;;;;;;4995769;28;20037;-74
2024/01/23 08:13:51;;;;;;;31.52;6.95;;;6.00;99.90;;;;;;4995811;28;20073;-74
2024/01/23 08:16:16;;;;;;;29.13;6.47;;;6.00;99.90;;;;;;4976755;28;20054;-74
2024/01/23 08:18:42;;;;;;;40.33;7.80;;;6.00;99.90;;;;;;4999395;28;20041;-74
2024/01/23 08:21:09;;;;;;;33.53;6.10;;;6.00;99.90;;;;;;4984477;28;20691;-74
2024/01/23 08:23:36;;;;;;;32.38;6.45;;;6.00;99.90;;;;;;4991254;28;20046;-74
2024/01/23 08:26:03;;;;;;;37.05;5.93;;;6.00;99.90;;;;;;4992204;28;20057;-74
2024/01/23 08:28:29;;;;;;;38.50;7.20;;;6.10;99.90;;;;;;4980185;28;20076;-74
2024/01/23 08:30:54;;;;;;;37.33;6.78;;;6.20;99.90;;;;;;4982162;28;20125;-74
2024/01/23 08:33:22;;;;;;;32.40;6.18;;;6.10;99.90;;;;;;4992325;28;20397;-74
2024/01/23 08:35:48;;;;;;;45.42;7.47;;;6.20;99.90;;;;;;4996435;28;20085;-74
2024/01/23 08:38:14;;;;;;;26.75;6.65;;;6.20;99.90;;;;;;4978968;28;20123;-74
2024/01/23 08:40:41;;;;;;;25.83;5.72;;;6.20;99.90;;;;;;4996028;28;20051;-74
2024/01/23 08:43:08;;;;;;;30.02;6.53;;;6.20;99.90;;;;;;5025544;28;20050;-74
2024/01/23 08:45:33;;;;;;;38.70;6.40;;;6.20;99.90;;;;;;4983603;28;20056;-74
2024/01/23 08:47:59;;;;;;;41.58;6.85;;;6.20;99.90;;;;;;4997506;28;20057;-74
2024/01/23 08:50:25;;;;;;;38.00;7.18;;;6.30;99.90;;;;;;4985035;28;20270;-74
2024/01/23 08:52:51;;;;;;;32.83;6.47;;;6.30;99.90;;;;;;4982810;28;20050;-74
2024/01/23 08:55:16;;;;;;;34.17;5.57;;;6.30;99.90;;;;;;4999949;28;20041;-74
2024/01/23 08:57:43;;;;;;;29.70;5.63;;;6.30;99.90;;;;;;4999135;28;20044;-74
2024/01/23 09:00:11;;;;;;;29.83;5.82;;;6.40;99.90;;;;;;5010081;28;20030;-74
2024/01/23 09:02:37;;;;;;;27.48;5.10;;;6.40;99.90;;;;;;4978129;28;20061;-74
2024/01/23 09:05:03;;;;;;;27.85;5.47;;;6.40;99.90;;;;;;4979945;28;20104;-74
2024/01/23 09:07:29;;;;;;;35.88;5.38;;;6.40;99.90;;;;;;5007540;28;20136;-74
2024/01/23 09:09:55;;;;;;;25.50;5.57;;;6.40;99.90;;;;;;5000339;28;20144;-74
2024/01/23 09:12:22;;;;;;;26.67;5.15;;;6.50;99.90;;;;;;4985064;28;20038;-74
2024/01/23 09:14:48;;;;;;;24.00;5.20;;;6.50;99.90;;;;;;4998082;28;20077;-74
2024/01/23 09:17:14;;;;;;;30.27;5.85;;;6.50;99.90;;;;;;4993977;28;20172;-74
2024/01/23 09:19:39;;;;;;;31.98;5.43;;;6.60;99.90;;;;;;4989999;28;20081;-74
2024/01/23 09:22:06;;;;;;;32.80;5.15;;;6.60;99.90;;;;;;4993298;28;20045;-74
2024/01/23 09:24:32;;;;;;;24.27;5.72;;;6.70;99.90;;;;;;4997812;28;20068;-74
2024/01/23 09:27:01;;;;;;;31.15;5.50;;;6.70;99.90;;;;;;4997976;28;20029;-74
2024/01/23 09:29:30;;;;;;;27.23;4.88;;;6.80;99.90;;;;;;4978313;28;20505;-74
2024/01/23 09:31:56;;;;;;;27.95;6.22;;;6.80;99.90;;;;;;4996592;28;20064;-74
2024/01/23 09:34:22;;;;;;;26.85;5.43;;;6.80;99.90;;;;;;4982866;28;20057;-74
2024/01/23 09:36:48;;;;;;;33.33;6.63;;;6.90;99.90;;;;;;4978231;28;20112;-74
2024/01/23 09:39:13;;;;;;;41.72;6.70;;;7.00;99.90;;;;;;4983697;28;20493;-74
2024/01/23 09:41:54;;;;;;;33.85;6.57;;;7.00;99.90;;;;;;4983229;28;20504;-74
2024/01/23 09:44:21;;;;;;;27.65;6.32;;;7.10;99.90;;;;;;4981015;28;20050;-74
2024/01/23 09:46:52;;;;;;;34.08;6.30;;;7.10;99.90;;;;;;4993131;28;20034;-74
2024/01/23 09:49:18;;;;;;;33.13;6.00;;;7.20;99.90;;;;;;4978708;28;20397;-74
2024/01/23 09:51:47;;;;;;;28.95;5.47;;;7.30;92.40;;;;;;4990179;28;20682;-74
2024/01/23 09:54:14;;;;;;;27.30;5.93;;;7.30;76.40;;;;;;4992417;28;20108;-74
2024/01/23 09:56:40;;;;;;;26.67;5.57;;;7.40;49.60;;;;;;4976610;28;20129;-74
2024/01/23 09:59:09;;;;;;;27.17;5.63;;;7.50;83.20;;;;;;4999624;28;20041;-74
2024/01/23 10:01:36;;;;;;;25.95;5.05;;;7.50;78.30;;;;;;4992339;28;20424;-74
2024/01/23 10:04:06;;;;;;;30.35;6.10;;;7.40;1.00;;;;;;4971220;28;20481;-74
2024/01/23 10:06:32;;;;;;;33.58;5.88;;;7.30;1.00;;;;;;4979145;28;20050;-74
2024/01/23 10:08:58;;;;;;;26.73;5.68;;;7.30;34.90;;;;;;4991579;28;20374;-74
2024/01/23 10:11:30;;;;;;;24.52;4.70;;;7.40;29.90;;;;;;4998669;28;20052;-74
2024/01/23 10:13:58;;;;;;;26.05;6.45;;;7.50;7.10;;;;;;4977450;28;20050;-74
2024/01/23 10:16:26;;;;;;;30.35;5.28;;;7.50;49.10;;;;;;4996664;28;20049;-74
2024/01/23 10:18:53;;;;;;;26.45;5.97;;;7.60;13.00;;;;;;4979275;28;20050;-74
2024/01/23 10:21:23;;;;;;;24.77;4.93;;;7.70;1.00;;;;;;4989402;28;20440;-74
2024/01/23 10:23:52;;;;;;;30.02;6.50;;;7.70;1.00;;;;;;5004220;28;20293;-74
2024/01/23 10:26:19;;;;;;;23.73;6.78;;;7.70;1.00;;;;;;4981176;28;20030;-74
2024/01/23 10:28:46;;;;;;;31.85;6.20;;;7.80;1.00;;;;;;4981577;28;20141;-74
2024/01/23 10:31:12;;;;;;;28.35;5.18;;;7.80;1.00;;;;;;5014272;28;20065;-74
2024/01/23 10:33:38;;;;;;;31.98;6.10;;;7.80;1.00;;;;;;5004618;28;20046;-74
2024/01/23 10:36:08;;;;;;;32.80;6.72;;;7.80;1.00;;;;;;4976331;28;20046;-74
2024/01/23 10:38:35;;;;;;;27.88;5.82;;;7.80;1.00;;;;;;5008373;28;20404;-74
2024/01/23 10:41:06;;;;;;;30.80;5.95;;;7.80;1.00;;;;;;4992059;28;20046;-74
2024/01/23 10:43:33;;;;;;;29.50;5.88;;;7.80;1.00;;;;;;4980483;28;20289;-74
2024/01/23 10:46:02;;;;;;;25.05;5.10;;;7.90;1.00;;;;;;4980473;28;20046;-74
2024/01/23 10:48:30;;;;;;;32.65;6.57;;;8.00;1.00;;;;;;4981774;28;20037;-74
2024/01/23 10:51:17;;;;;;;34.10;6.45;;;8.00;1.00;;;;;;4984103;28;20049;-74
2024/01/23 10:54:01;;;;;;;21.00;4.68;;;8.00;99.90;;;;;;4978094;28;20046;-74
2024/01/23 10:56:41;;;;;;;25.27;5.00;;;8.00;1.00;;;;;;4994133;28;20106;-74
2024/01/23 10:59:30;;;;;;;23.05;5.93;;;8.00;1.00;;;;;;4999230;28;20405;-74
2024/01/23 11:02:05;;;;;;;27.92;5.88;;;8.00;1.00;;;;;;4990383;28;20622;-74
2024/01/23 11:04:31;;;;;;;27.13;5.30;;;8.10;1.00;;;;;;4983818;28;20048;-74
2024/01/23 11:07:10;;;;;;;33.50;5.95;;;8.10;1.00;;;;;;4991878;28;20056;-74
2024/01/23 11:09:41;;;;;;;25.85;5.20;;;8.30;1.00;;;;;;4996111;28;20076;-73
2024/01/23 11:12:19;;;;;;;24.50;4.45;;;8.20;99.90;;;;;;4995534;28;20050;-74
2024/01/23 11:14:59;;;;;;;26.33;6.15;;;8.20;1.00;;;;;;4994854;28;20421;-74
2024/01/23 11:17:31;;;;;;;27.48;5.05;;;8.20;1.00;;;;;;4976367;28;20465;-74
2024/01/23 11:20:09;;;;;;;28.85;6.22;;;8.20;99.90;;;;;;4993931;28;20048;-74
2024/01/23 11:22:36;;;;;;;31.50;5.72;;;8.10;99.90;;;;;;4982667;28;21927;-74
2024/01/23 11:25:03;;;;;;;29.25;5.63;;;8.10;99.90;;;;;;4994996;28;20049;-74
2024/01/23 11:27:30;;;;;;;22.38;4.88;;;8.10;99.90;;;;;;4976940;28;20041;-74
2024/01/23 11:29:58;;;;;;;29.98;5.30;;;8.20;99.90;;;;;;4984921;28;20052;-74
2024/01/23 11:32:25;;;;;;;26.40;5.10;;;8.00;99.90;;;;;;4993494;28;20064;-74
2024/01/23 11:35:02;;;;;;;27.65;4.90;;;8.10;99.90;;;;;;4991807;28;20232;-74
2024/01/23 11:37:50;;;;;;;30.15;5.75;;;8.10;99.90;;;;;;4990738;28;20073;-74
2024/01/23 11:40:36;;;;;;;22.00;4.60;;;8.00;99.90;;;;;;5022539;28;20046;-74
2024/01/23 11:43:06;;;;;;;25.33;5.40;;;8.10;99.90;;;;;;4999048;28;20092;-73
2024/01/23 11:45:35;;;;;;;27.48;5.25;;;8.20;99.90;;;;;;4997161;28;20050;-73
2024/01/23 11:48:06;;;;;;;28.77;5.25;;;8.10;99.90;;;;;;4977931;28;20042;-74
2024/01/23 11:50:34;;;;;;;27.73;5.45;;;8.00;99.90;;;;;;5011613;28;20038;-73
2024/01/23 11:53:01;;;;;;;25.23;4.72;;;8.00;99.90;;;;;;4976217;28;20107;-74
2024/01/23 11:55:27;;;;;;;27.10;4.80;;;8.00;99.90;;;;;;4995613;28;20045;-74
2024/01/23 11:57:55;;;;;;;27.00;6.05;;;8.00;99.90;;;;;;5010547;28;20037;-73
2024/01/23 12:00:22;;;;;;;27.88;5.55;;;8.00;99.90;;;;;;4997818;28;20034;-74
2024/01/23 12:02:49;;;;;;;23.15;5.50;;;8.10;99.90;;;;;;4982569;28;20452;-74
2024/01/23 12:05:16;;;;;;;25.45;5.55;;;8.10;99.90;;;;;;4993791;28;20245;-74
2024/01/23 12:07:42;;;;;;;22.52;5.10;;;8.10;99.90;;;;;;4985842;28;20048;-73
2024/01/23 12:10:14;;;;;;;25.60;5.63;;;8.00;99.90;;;;;;4984427;28;20181;-73
2024/01/23 12:12:40;;;;;;;23.80;5.60;;;8.10;99.90;;;;;;4999761;28;20828;-74
2024/01/23 12:15:07;;;;;;;23.90;5.18;;;8.20;99.90;;;;;;4988255;28;20053;-74
2024/01/23 12:17:34;;;;;;;26.90;5.60;;;8.20;99.90;;;;;;4980031;28;20048;-74
2024/01/23 12:20:09;;;;;;;30.40;5.47;;;8.20;99.90;;;;;;4997799;28;20041;-73
2024/01/23 12:22:39;;;;;;;31.60;5.70;;;8.20;99.90;;;;;;5027458;28;20072;-74
2024/01/23 12:25:05;;;;;;;24.42;5.18;;;8.30;99.90;;;;;;4996142;28;20053;-73
2024/01/23 12:27:32;;;;;;;25.33;5.13;;;8.20;99.90;;;;;;5036719;28;20123;-74
2024/01/23 12:30:01;;;;;;;30.23;6.20;;;8.20;99.90;;;;;;4999525;28;20049;-73
2024/01/23 12:32:30;;;;;;;29.98;5.13;;;8.20;99.90;;;;;;4984332;28;20053;-74
2024/01/23 12:34:57;;;;;;;26.70;6.32;;;8.30;99.90;;;;;;5000880;28;21058;-73
2024/01/23 12:37:26;;;;;;;25.38;5.30;;;8.40;99.90;;;;;;4993349;28;20050;-73
2024/01/23 12:39:53;;;;;;;30.38;5.97;;;8.50;99.90;;;;;;5013093;28;20050;-73
2024/01/23 12:42:19;;;;;;;25.30;5.13;;;8.70;99.90;;;;;;5012452;28;20467;-73
2024/01/23 12:44:45;;;;;;;22.83;5.28;;;8.60;99.90;;;;;;4995061;28;20037;-73
2024/01/23 12:47:14;;;;;;;29.02;6.10;;;8.70;99.90;;;;;;4994704;28;20066;-73
2024/01/23 12:49:40;;;;;;;29.60;5.50;;;8.70;99.90;;;;;;5012138;28;20180;-74